Flight Track Log - Related Links

Times and Time Zones

All times are in EDT time to prevent confusion due to time zone crossing. See the N779NC flight status page for this flight to view local times or setup timezone preferences in your user account.

Time Position Orientation Groundspeed Altitude Reporting Facility
EDT Latitude Longitude Course Direction KTS MPH feet Rate Location/Type
Tue 09:07:41 PM 33.6500 -84.4667 284° West 175 201 2,500  Level Atlanta TRACON
Tue 09:08:35 PM 33.6667 -84.5500 284° West 265 305 4,200 2,450 Climbing Atlanta TRACON
Tue 09:09:41 PM 33.7333 -84.6000 328° Northwest 282 325 7,400 2,667 Climbing Atlanta TRACON
Tue 09:10:41 PM 33.8000 -84.6167 348° North 293 337 9,800 1,770 Climbing Atlanta TRACON
Tue 09:12:00 PM 33.9244 -84.6272 356° North 337 388 11,500 1,597 Climbing Atlanta Center
Tue 09:13:00 PM 34.0142 -84.6353 356° North 360 414 13,500 1,950 Climbing Atlanta Center
Tue 09:14:00 PM 34.1267 -84.6461 355° North 366 421 15,400 1,850 Climbing Atlanta Center
Tue 09:15:00 PM 34.2247 -84.6467 360° North 379 436 17,200 1,850 Climbing Atlanta Center
Tue 09:16:00 PM 34.3294 -84.6097 16° North 379 436 19,100 1,700 Climbing Atlanta Center
Tue 09:17:00 PM 34.4319 -84.5575 23° Northeast 393 452 20,600 1,450 Climbing Atlanta Center
Tue 09:18:00 PM 34.5428 -84.4953 25° Northeast 393 452 22,000 1,250 Climbing Atlanta Center
Tue 09:19:00 PM 34.6533 -84.4478 19° North 405 466 23,100 500 Climbing Atlanta Center
Tue 09:20:00 PM 34.7433 -84.3547 40° Northeast 405 466 23,000 -50 Descending Atlanta Center
Tue 09:21:00 PM 34.8147 -84.2436 52° Northeast 411 473 23,000 -300 Level Atlanta Center
Tue 09:22:00 PM 34.8650 -84.1197 64° Northeast 412 474 22,400 -900 Descending Atlanta Center
Tue 09:23:00 PM 34.9169 -83.9906 64° Northeast 412 474 21,200 -800 Descending Atlanta Center
Tue 09:24:00 PM 34.9650 -83.8564 66° East 417 480 20,800 -850 Descending Atlanta Center
Tue 09:25:00 PM 35.0022 -83.7244 71° East 417 480 19,500 -1,250 Descending Atlanta Center
Tue 09:26:00 PM 35.0414 -83.5947 70° East 407 468 18,300 -1,150 Descending Atlanta Center
Tue 09:27:00 PM 35.0661 -83.4753 76° East 407 468 17,200 -1,200 Descending Atlanta Center
Tue 09:28:00 PM 35.0778 -83.3383 84° East 398 458 15,900 -1,300 Descending Atlanta Center
Tue 09:29:00 PM 35.0917 -83.2139 82° East 387 445 14,600 -1,400 Descending Atlanta Center
Tue 09:30:00 PM 35.1075 -83.0817 82° East 387 445 13,100 -1,650 Descending Atlanta Center
Tue 09:31:00 PM 35.1231 -82.9697 80° East 368 423 11,300 -1,550 Descending Atlanta Center
Tue 09:32:00 PM 35.1389 -82.8578 80° East 344 396 10,000 -700 Descending Atlanta Center
Tue 09:33:00 PM 35.1964 -82.7833 47° Northeast 303 349 9,900 -50 Descending Atlanta Center
Tue 09:34:00 PM 35.2817 -82.7439 21° North 286 329 9,900 50 Level Atlanta Center
Tue 09:35:00 PM 35.3644 -82.6942 26° Northeast 310 357 10,000 50 Climbing Atlanta Center
Tue 09:36:00 PM 35.4500 -82.6850 North 310 357 10,000 -150 Level Atlanta Center
Tue 09:37:00 PM 35.5400 -82.6989 353° North 323 372 9,700 -1,450 Descending Atlanta Center
Tue 09:38:00 PM 35.6169 -82.6900 North 291 335 7,100 -2,600 Descending Atlanta Center
Tue 09:39:00 PM 35.5354 -82.6231 146° Southeast  Level Estimated
Tue 09:46:00 PM 35.4362 -82.5418 146° Southeast  Level Estimated
Tue 09:47:00 PM 35.4362 -82.5418 39° Northeast  Level Estimated
Tue 09:48:00 PM 35.4362 -82.5418 39° Northeast  Level Estimated
Tue 09:49:00 PM 35.4362 -82.5418 39° Northeast  Level Estimated
Tue 09:50:00 PM 35.4362 -82.5418 39° Northeast  Level Estimated
Tue 09:51:00 PM 35.4362 -82.5418 39° Northeast  Level Estimated
Tue 09:52:00 PM 35.4362 -82.5418 39° Northeast  Level Estimated
Tue 09:53:00 PM 35.4362 -82.5418 39° Northeast  Level Estimated

Login

Don't have an account? Register now (free) for customized features, flight alerts, and more!